Südanflug-Wetter

Südanflüge sind sowohl am Euroairport Basel-Mulhouse-Freiburg als auch am Flughafen Unique Zürich ein Thema für die Anwohner. In Basel hängen Südanflüge von den Windverhältnissen ab. Für den Euroairport Basel-Mulhouse-Freiburg bereitet MeteoNews deshalb aktuelle Winddaten auf, die direkt auf der Homepage des Flughafens eingebunden werden. Angaben zum Flughafen Zürich finden Sie hier.

In Zürich sind Südanflüge auf die Piste 34 möglich, wenn die horizontale Sichtweite mindestens 750 m beträgt und die Wolkenuntergrenze im Anflugsektor nicht tiefer als 300 Fuss (knapp 100 m) liegt (diese Werte gelten seit dem 1. November 2004).

Prognose für Südanflüge

Am Montag sind Südanflüge möglich.
(Prognose ohne Gewähr. Die Vorhersage wird mehrmals täglich aktualisiert. Verantwortlicher Meteorologe: Roger Perret, 28.05.2017 15:23)

Analyse der letzten METAR-Messungen

Unser Tool wertet die letzten 20 offiziellen Wettermeldungen (METAR) des Flughafens Zürich aus und entscheidet aufgrund der beiden Werte für Sichtweite und Ceiling (Hauptwolkenuntergrenze), ob Südanflüge nach obiger Definition möglich wären. Allerdings repräsentiert der Wert für die Wolkenuntergrenze in der METAR-Meldung nicht die Bewölkung im Anflugsektor sondern generell um den Flughafen. Da über die Bewölkung im Anflugsektor kurzfristig aufgrund von Beobachtungen des Towers und von Piloten entschieden wird, kann die Angabe unseres Tools in gewissen Fällen von den realen Entscheiden der Flugsicherung abweichen.

Südanflüge Datum Uhrzeit Sichtweite Ceiling Vollständige METAR-Meldung
möglich 2017-05-28 17:50:00 > 10 km LSZH 281550Z 35003KT 290V050 9999 FEW065 SCT250 29/15 Q1019 NOSIG
möglich 2017-05-28 17:20:00 > 10 km LSZH 281520Z 32007KT 9999 FEW065 BKN250 27/16 Q1019 NOSIG
möglich 2017-05-28 16:50:00 > 10 km LSZH 281450Z 35005KT 9999 FEW065 BKN250 27/13 Q1019 NOSIG
möglich 2017-05-28 16:20:00 > 10 km LSZH 281420Z 36005KT 300V030 9999 FEW065 BKN250 28/12 Q1019 NOSIG
möglich 2017-05-28 15:50:00 > 10 km LSZH 281350Z 02005KT 350V050 9999 FEW065 BKN250 28/11 Q1019 NOSIG
möglich 2017-05-28 15:20:00 > 10 km LSZH 281320Z 36005KT 310V030 9999 FEW065 BKN250 29/11 Q1019 NOSIG
möglich 2017-05-28 14:50:00 > 10 km LSZH 281250Z 01005KT 330V050 9999 FEW060 SCT250 30/11 Q1019 NOSIG
möglich 2017-05-28 14:20:00 > 10 km LSZH 281220Z VRB03KT 9999 FEW060 SCT250 30/10 Q1019 NOSIG
möglich 2017-05-28 13:50:00 > 10 km LSZH 281150Z 06004KT 340V150 9999 FEW060 SCT250 29/13 Q1020 NOSIG
möglich 2017-05-28 13:20:00 > 10 km LSZH 281120Z VRB02KT 9999 FEW060 29/14 Q1020 NOSIG
möglich 2017-05-28 12:50:00 > 10 km LSZH 281050Z VRB02KT 9999 FEW050 28/12 Q1020 NOSIG
möglich 2017-05-28 12:20:00 > 10 km LSZH 281020Z 27004KT 250V320 9999 FEW050 27/14 Q1020 NOSIG
möglich 2017-05-28 11:50:00 > 10 km LSZH 280950Z 09003KT 050V130 CAVOK 27/16 Q1020 NOSIG
möglich 2017-05-28 11:20:00 > 10 km LSZH 280920Z 07003KT 020V110 CAVOK 25/16 Q1021 NOSIG
möglich 2017-05-28 10:50:00 > 10 km LSZH 280850Z VRB02KT CAVOK 24/14 Q1021 NOSIG
möglich 2017-05-28 10:20:00 > 10 km LSZH 280820Z 04003KT 330V080 CAVOK 23/14 Q1021 NOSIG
möglich 2017-05-28 09:50:00 > 10 km LSZH 280750Z VRB02KT CAVOK 23/14 Q1021 NOSIG
möglich 2017-05-28 09:20:00 > 10 km LSZH 280720Z VRB01KT CAVOK 21/13 Q1021 NOSIG
möglich 2017-05-28 08:50:00 > 10 km LSZH 280650Z VRB01KT CAVOK 20/13 Q1021 NOSIG
möglich 2017-05-28 08:20:00 > 10 km LSZH 280620Z VRB01KT CAVOK 18/13 Q1021 NOSIG